Time;durP1;ratioP1;P1;durP2;ratioP2;P2;SDS_P1;SDS_P2;PMS_P1;PMS_P2;Temp;Humidity;BMP_temperature;BMP_pressure;BME280_temperature;BME280_humidity;BME280_pressure;Samples;Min_cycle;Max_cycle;Signal;HPM_P1;HPM_P2
2023/01/22 00:01:45;;;;;;;;;;;-0.60;99.90;;;;;;5052075;28;19921;-78
2023/01/22 00:04:11;;;;;;;;;;;-0.50;99.90;;;;;;5051121;28;19931;-78
2023/01/22 00:06:37;;;;;;;;;;;-0.60;99.90;;;;;;5052248;28;19904;-78
2023/01/22 00:09:03;;;;;;;;;;;-0.60;99.90;;;;;;5053011;28;19931;-78
2023/01/22 00:11:29;;;;;;;;;;;-0.60;99.90;;;;;;5052469;28;20286;-78
2023/01/22 00:13:55;;;;;;;;;;;-0.50;99.90;;;;;;5051334;28;19905;-79
2023/01/22 00:16:21;;;;;;;;;;;-0.60;99.90;;;;;;5052102;28;19915;-78
2023/01/22 00:18:47;;;;;;;;;;;-0.60;99.90;;;;;;5050692;28;19909;-78
2023/01/22 00:21:13;;;;;;;;;;;-0.50;99.90;;;;;;5051318;28;20110;-78
2023/01/22 00:23:39;;;;;;;;;;;-0.50;99.90;;;;;;5054899;28;19924;-78
2023/01/22 00:26:06;;;;;;;;;;;-0.50;99.90;;;;;;5055744;28;20003;-78
2023/01/22 00:28:32;;;;;;;;;;;-0.50;99.90;;;;;;5055170;28;19909;-78
2023/01/22 00:30:59;;;;;;;;;;;-0.50;99.90;;;;;;5055602;28;20011;-78
2023/01/22 00:33:25;;;;;;;;;;;-0.50;99.90;;;;;;5066590;28;19920;-78
2023/01/22 00:35:51;;;;;;;;;;;-0.50;99.90;;;;;;5056440;28;19916;-78
2023/01/22 00:38:20;;;;;;;;;;;-0.50;99.90;;;;;;5054919;28;20373;-78
2023/01/22 00:40:46;;;;;;;;;;;-0.50;99.90;;;;;;5056057;28;19935;-79
2023/01/22 00:43:12;;;;;;;;;;;-0.50;99.90;;;;;;5063563;28;19909;-79
2023/01/22 00:45:38;;;;;;;;;;;-0.50;99.90;;;;;;5036434;28;19909;-77
2023/01/22 00:48:04;;;;;;;;;;;-0.50;99.90;;;;;;5052770;28;19920;-78
2023/01/22 00:50:30;;;;;;;;;;;-0.50;99.90;;;;;;5049096;28;19924;-81
2023/01/22 00:52:59;;;;;;;;;;;-0.50;99.90;;;;;;5046245;28;19905;-79
2023/01/22 00:55:25;;;;;;;;;;;-0.50;99.90;;;;;;5056140;28;20346;-78
2023/01/22 00:57:51;;;;;;;;;;;-0.50;99.90;;;;;;5055211;28;19905;-78
2023/01/22 01:00:18;;;;;;;;;;;-0.50;99.90;;;;;;5053223;28;19952;-77
2023/01/22 01:05:31;;;;;;;;;;;-0.50;99.90;;;;;;5055588;28;19915;-77
2023/01/22 01:07:58;;;;;;;;;;;-0.50;99.90;;;;;;5054661;28;19995;-83
2023/01/22 01:10:24;;;;;;;;;;;-0.40;99.90;;;;;;5055507;28;19921;-77
2023/01/22 01:12:50;;;;;;;;;;;-0.40;99.90;;;;;;5054785;28;19948;-77
2023/01/22 01:15:19;;;;;;;;;;;-0.40;99.90;;;;;;5053214;28;20290;-77
2023/01/22 01:17:45;;;;;;;;;;;-0.40;99.90;;;;;;5055542;28;19956;-77
2023/01/22 01:20:11;;;;;;;;;;;-0.40;99.90;;;;;;5055886;28;19935;-77
2023/01/22 01:22:37;;;;;;;;;;;-0.40;99.90;;;;;;5036859;28;19905;-78
2023/01/22 01:25:03;;;;;;;;;;;-0.40;99.90;;;;;;5034896;28;19931;-77
2023/01/22 01:27:30;;;;;;;;;;;-0.40;99.90;;;;;;5050555;28;19908;-78
2023/01/22 01:29:59;;;;;;;;;;;-0.40;99.90;;;;;;5038277;28;19913;-82
2023/01/22 01:32:25;;;;;;;;;;;-0.30;99.90;;;;;;5037375;28;19913;-78
2023/01/22 01:34:51;;;;;;;;;;;-0.30;99.90;;;;;;5043343;28;19909;-78
2023/01/22 01:37:17;;;;;;;;;;;-0.30;99.90;;;;;;5034376;28;20004;-78
2023/01/22 01:39:43;;;;;;;;;;;-0.30;99.90;;;;;;5048520;28;19923;-78
2023/01/22 01:42:09;;;;;;;;;;;-0.30;99.90;;;;;;5047739;28;20354;-77
2023/01/22 01:44:36;;;;;;;;;;;-0.30;99.90;;;;;;5041836;28;19909;-77
2023/01/22 01:47:10;;;;;;;;;;;-0.30;99.90;;;;;;5042004;28;19905;-78
2023/01/22 01:49:40;;;;;;;;;;;-0.30;99.90;;;;;;5050165;28;19909;-77
2023/01/22 01:52:08;;;;;;;;;;;-0.30;99.90;;;;;;5044332;28;19909;-77
2023/01/22 01:54:34;;;;;;;;;;;-0.30;99.90;;;;;;5048998;28;19909;-77
2023/01/22 01:57:07;;;;;;;;;;;-0.30;99.90;;;;;;5058131;28;19905;-83
2023/01/22 01:59:34;;;;;;;;;;;-0.30;99.90;;;;;;5059483;28;19916;-77
2023/01/22 02:02:01;;;;;;;;;;;-0.30;99.90;;;;;;5037164;28;19913;-82
2023/01/22 02:04:27;;;;;;;;;;;-0.30;99.90;;;;;;5049040;28;19913;-78
2023/01/22 02:06:53;;;;;;;;;;;-0.30;99.90;;;;;;5041568;28;19909;-77
2023/01/22 02:09:19;;;;;;;;;;;-0.30;99.90;;;;;;5039022;28;19916;-78
2023/01/22 02:11:45;;;;;;;;;;;-0.30;99.90;;;;;;5062238;28;19916;-77
2023/01/22 02:14:14;;;;;;;;;;;-0.20;99.90;;;;;;5053437;28;19915;-77
2023/01/22 02:16:40;;;;;;;;;;;-0.20;99.90;;;;;;5068458;28;19909;-78
2023/01/22 02:19:06;;;;;;;;;;;-0.20;99.90;;;;;;5046028;28;20007;-78
2023/01/22 02:21:40;;;;;;;;;;;-0.20;99.90;;;;;;5045015;28;19920;-80
2023/01/22 02:24:08;;;;;;;;;;;-0.20;99.90;;;;;;5053060;28;20354;-78
2023/01/22 02:26:34;;;;;;;;;;;-0.20;99.90;;;;;;5059010;28;20329;-77
2023/01/22 02:29:00;;;;;;;;;;;-0.20;99.90;;;;;;5064920;28;20368;-82
2023/01/22 02:31:29;;;;;;;;;;;-0.20;99.90;;;;;;5050558;28;19921;-78
2023/01/22 02:33:55;;;;;;;;;;;-0.20;99.90;;;;;;5067487;28;19913;-77
2023/01/22 02:36:25;;;;;;;;;;;-0.10;99.90;;;;;;5031603;28;19909;-77
2023/01/22 02:38:51;;;;;;;;;;;-0.10;99.90;;;;;;5064262;28;19916;-77
2023/01/22 02:41:17;;;;;;;;;;;-0.10;99.90;;;;;;5063288;28;19905;-78
2023/01/22 02:43:43;;;;;;;;;;;0.00;99.90;;;;;;5051376;28;19908;-77
2023/01/22 02:46:09;;;;;;;;;;;0.00;99.90;;;;;;5052290;28;19951;-77
2023/01/22 02:48:35;;;;;;;;;;;0.00;99.90;;;;;;5067238;28;19908;-77
2023/01/22 02:51:02;;;;;;;;;;;0.00;99.90;;;;;;5048964;28;19920;-81
2023/01/22 02:53:28;;;;;;;;;;;0.00;99.90;;;;;;5047051;28;19917;-77
2023/01/22 02:55:54;;;;;;;;;;;0.10;99.90;;;;;;5058480;28;19921;-77
2023/01/22 02:58:20;;;;;;;;;;;0.00;99.90;;;;;;5062846;28;19920;-77
2023/01/22 03:00:46;;;;;;;;;;;0.10;99.90;;;;;;5053692;28;19923;-77
2023/01/22 03:03:14;;;;;;;;;;;0.10;99.90;;;;;;5049595;28;19920;-77
2023/01/22 03:05:43;;;;;;;;;;;0.10;98.80;;;;;;5052575;28;19916;-77
2023/01/22 03:08:09;;;;;;;;;;;0.10;96.70;;;;;;5041572;28;19905;-78
2023/01/22 03:10:34;;;;;;;;;;;0.10;95.50;;;;;;5062694;28;19921;-77
2023/01/22 03:21:15;;;;;;;;;;;0.10;93.00;;;;;;5052141;28;20385;-78
2023/01/22 03:23:43;;;;;;;;;;;0.10;93.80;;;;;;5043877;28;19904;-77
2023/01/22 03:26:10;;;;;;;;;;;0.10;93.80;;;;;;5043091;28;20358;-78
2023/01/22 03:28:36;;;;;;;;;;;0.20;93.00;;;;;;5051218;28;19909;-77
2023/01/22 03:31:03;;;;;;;;;;;0.20;92.20;;;;;;5043667;28;19913;-81
2023/01/22 03:33:30;;;;;;;;;;;0.20;92.80;;;;;;5050542;28;19912;-75
2023/01/22 03:36:04;;;;;;;;;;;0.10;92.40;;;;;;5051862;28;19904;-75
2023/01/22 03:38:30;;;;;;;;;;;0.10;93.60;;;;;;5051311;28;19935;-76
2023/01/22 03:41:16;;;;;;;;;;;0.10;95.20;;;;;;5032225;28;19905;-76
2023/01/22 03:43:44;;;;;;;;;;;0.20;96.30;;;;;;5055766;28;19917;-76
2023/01/22 03:46:15;;;;;;;;;;;0.20;96.30;;;;;;5067359;28;19916;-76
2023/01/22 03:48:43;;;;;;;;;;;0.10;96.30;;;;;;5037999;28;20262;-76
2023/01/22 03:51:13;;;;;;;;;;;0.10;96.10;;;;;;5044244;28;19913;-76
2023/01/22 03:53:39;;;;;;;;;;;0.20;94.60;;;;;;5049338;28;20281;-76
2023/01/22 03:56:07;;;;;;;;;;;0.20;93.60;;;;;;5051633;28;19968;-81
2023/01/22 03:58:35;;;;;;;;;;;0.20;93.50;;;;;;5040430;28;19916;-76
2023/01/22 04:01:06;;;;;;;;;;;0.10;93.40;;;;;;5062428;28;19924;-76
2023/01/22 04:03:33;;;;;;;;;;;0.10;93.40;;;;;;5069875;28;19920;-76
2023/01/22 04:05:59;;;;;;;;;;;0.10;93.30;;;;;;5071391;28;19916;-77
2023/01/22 04:08:26;;;;;;;;;;;0.10;94.00;;;;;;5055845;28;19905;-77
2023/01/22 04:10:54;;;;;;;;;;;0.10;95.60;;;;;;5054359;28;19916;-77
2023/01/22 04:13:20;;;;;;;;;;;0.10;96.80;;;;;;5048779;28;19916;-76
2023/01/22 04:15:49;;;;;;;;;;;0.10;97.50;;;;;;5049913;28;19909;-76
2023/01/22 04:18:38;;;;;;;;;;;0.10;96.20;;;;;;5047572;28;19908;-76
2023/01/22 04:21:42;;;;;;;;;;;0.10;95.20;;;;;;5010487;28;19910;-76
2023/01/22 04:24:10;;;;;;;;;;;0.10;93.60;;;;;;4993909;28;20435;-76
2023/01/22 04:26:36;;;;;;;;;;;0.20;92.60;;;;;;5007780;28;19904;-76
2023/01/22 04:29:03;;;;;;;;;;;0.20;92.00;;;;;;5054812;28;19916;-76
2023/01/22 04:31:29;;;;;;;;;;;0.20;92.70;;;;;;5053010;28;20298;-76
2023/01/22 04:34:16;;;;;;;;;;;0.20;93.00;;;;;;5053753;28;20282;-76
2023/01/22 04:36:47;;;;;;;;;;;0.10;93.50;;;;;;5057317;28;19909;-76
2023/01/22 04:39:13;;;;;;;;;;;0.20;93.90;;;;;;5063414;28;20373;-80
2023/01/22 04:41:39;;;;;;;;;;;0.10;94.70;;;;;;5047650;28;20072;-77
2023/01/22 04:44:05;;;;;;;;;;;0.10;95.20;;;;;;5055057;28;19909;-81
2023/01/22 04:46:32;;;;;;;;;;;0.10;95.00;;;;;;5054208;28;19909;-77
2023/01/22 04:48:58;;;;;;;;;;;0.20;95.40;;;;;;5055318;28;19912;-77
2023/01/22 04:51:25;;;;;;;;;;;0.10;96.70;;;;;;5052911;28;20448;-77
2023/01/22 04:53:51;;;;;;;;;;;0.10;97.60;;;;;;5054115;28;19908;-76
2023/01/22 04:56:17;;;;;;;;;;;0.10;97.20;;;;;;5040767;28;19916;-77
2023/01/22 04:58:44;;;;;;;;;;;0.20;96.80;;;;;;5069752;28;20393;-78
2023/01/22 05:01:10;;;;;;;;;;;0.10;96.40;;;;;;5052417;28;20361;-77
2023/01/22 05:03:36;;;;;;;;;;;0.20;96.20;;;;;;5055548;28;19920;-76
2023/01/22 05:06:04;;;;;;;;;;;0.20;95.90;;;;;;5053875;28;19908;-76
2023/01/22 05:08:33;;;;;;;;;;;0.20;96.30;;;;;;5055177;28;19916;-76
2023/01/22 05:11:01;;;;;;;;;;;0.20;96.00;;;;;;5052475;28;19916;-76
2023/01/22 05:13:30;;;;;;;;;;;0.20;96.70;;;;;;5037270;28;20353;-77
2023/01/22 05:15:56;;;;;;;;;;;0.20;95.90;;;;;;5055163;28;19947;-77
2023/01/22 05:18:24;;;;;;;;;;;0.20;95.30;;;;;;5041753;28;19936;-77
2023/01/22 05:20:51;;;;;;;;;;;0.20;95.40;;;;;;5050346;28;19909;-77
2023/01/22 05:23:19;;;;;;;;;;;0.20;96.10;;;;;;5062318;28;19911;-76
2023/01/22 05:25:49;;;;;;;;;;;0.20;96.40;;;;;;5055036;28;19909;-77
2023/01/22 05:28:17;;;;;;;;;;;0.20;97.70;;;;;;5068771;28;20263;-77
2023/01/22 05:31:02;;;;;;;;;;;0.20;98.60;;;;;;5048858;28;19920;-76
2023/01/22 05:33:45;;;;;;;;;;;0.20;99.40;;;;;;5047714;28;19912;-76
2023/01/22 05:36:13;;;;;;;;;;;0.20;99.90;;;;;;5051746;28;19915;-78
2023/01/22 05:38:39;;;;;;;;;;;0.20;99.50;;;;;;5052592;28;20309;-76
2023/01/22 05:41:05;;;;;;;;;;;0.20;98.40;;;;;;5038951;28;19909;-77
2023/01/22 05:43:37;;;;;;;;;;;0.20;98.10;;;;;;5044754;28;20346;-77
2023/01/22 05:46:04;;;;;;;;;;;0.20;97.80;;;;;;5040604;28;19909;-77
2023/01/22 05:48:53;;;;;;;;;;;0.20;98.60;;;;;;5042639;28;19908;-77
2023/01/22 05:51:22;;;;;;;;;;;0.20;99.50;;;;;;5048671;28;19917;-77
2023/01/22 05:53:49;;;;;;;;;;;0.20;99.90;;;;;;5044650;28;20366;-77
2023/01/22 05:56:15;;;;;;;;;;;0.20;99.90;;;;;;5052603;28;20373;-77
2023/01/22 05:58:42;;;;;;;;;;;0.20;99.70;;;;;;5047874;28;19909;-78
2023/01/22 06:01:08;;;;;;;;;;;0.20;99.90;;;;;;5050714;28;19916;-81
2023/01/22 06:03:40;;;;;;;;;;;0.20;99.90;;;;;;5068773;28;19919;-76
2023/01/22 06:06:07;;;;;;;;;;;0.20;99.90;;;;;;5056895;28;19916;-76
2023/01/22 06:08:34;;;;;;;;;;;0.20;99.90;;;;;;5043319;28;20362;-77
2023/01/22 06:11:03;;;;;;;;;;;0.20;99.90;;;;;;5048508;28;19924;-76
2023/01/22 06:13:29;;;;;;;;;;;0.10;99.90;;;;;;5067076;28;19927;-77
2023/01/22 06:16:00;;;;;;;;;;;0.20;99.90;;;;;;5041803;28;19909;-76
2023/01/22 06:18:47;;;;;;;;;;;0.10;99.90;;;;;;5048095;28;19909;-76
2023/01/22 06:21:15;;;;;;;;;;;0.10;99.90;;;;;;5035662;28;19916;-77
2023/01/22 06:23:41;;;;;;;;;;;0.20;99.90;;;;;;5051250;28;19905;-77
2023/01/22 06:26:08;;;;;;;;;;;0.10;99.90;;;;;;5069418;28;20393;-77
2023/01/22 06:28:34;;;;;;;;;;;0.20;99.90;;;;;;5034956;28;19917;-77
2023/01/22 06:31:04;;;;;;;;;;;0.20;99.90;;;;;;5042164;28;19927;-77
2023/01/22 06:33:31;;;;;;;;;;;0.20;99.90;;;;;;5067610;28;19924;-77
2023/01/22 06:35:57;;;;;;;;;;;0.10;99.90;;;;;;5053471;28;20354;-77
2023/01/22 06:38:23;;;;;;;;;;;0.10;99.90;;;;;;5067069;28;19920;-77
2023/01/22 06:40:54;;;;;;;;;;;0.10;99.90;;;;;;5057984;28;20239;-77
2023/01/22 06:43:20;;;;;;;;;;;0.10;99.90;;;;;;5063917;28;19908;-76
2023/01/22 06:45:49;;;;;;;;;;;0.10;99.90;;;;;;5038370;28;20275;-76
2023/01/22 06:48:17;;;;;;;;;;;0.10;99.90;;;;;;5048301;28;20301;-77
2023/01/22 06:50:43;;;;;;;;;;;0.10;99.90;;;;;;5050711;28;19924;-76
2023/01/22 06:53:09;;;;;;;;;;;0.10;99.90;;;;;;5054066;28;19916;-77
2023/01/22 06:55:35;;;;;;;;;;;0.10;99.90;;;;;;5051792;28;19920;-77
2023/01/22 06:58:02;;;;;;;;;;;0.10;99.90;;;;;;5038888;28;20242;-77
2023/01/22 07:00:28;;;;;;;;;;;0.10;99.90;;;;;;5049983;28;19916;-77
2023/01/22 07:02:54;;;;;;;;;;;0.10;99.90;;;;;;5052946;28;19917;-77
2023/01/22 07:05:20;;;;;;;;;;;0.10;99.90;;;;;;5052246;28;20369;-77
2023/01/22 07:07:47;;;;;;;;;;;0.10;99.90;;;;;;5046267;28;19908;-76
2023/01/22 07:10:13;;;;;;;;;;;0.10;99.90;;;;;;5049177;28;19908;-80
2023/01/22 07:12:39;;;;;;;;;;;0.10;99.90;;;;;;5042723;28;20289;-81
2023/01/22 07:15:08;;;;;;;;;;;0.10;99.90;;;;;;5048817;28;19908;-76
2023/01/22 07:17:36;;;;;;;;;;;0.10;99.90;;;;;;5054375;28;19920;-79
2023/01/22 07:20:03;;;;;;;;;;;0.10;99.90;;;;;;5038061;28;19917;-78
2023/01/22 07:22:30;;;;;;;;;;;0.10;99.90;;;;;;5048190;28;19909;-78
2023/01/22 07:24:57;;;;;;;;;;;0.10;99.90;;;;;;5054221;28;19909;-78
2023/01/22 07:27:23;;;;;;;;;;;0.10;99.90;;;;;;5052651;28;19909;-78
2023/01/22 07:29:49;;;;;;;;;;;0.10;99.90;;;;;;5036444;28;20381;-77
2023/01/22 07:32:15;;;;;;;;;;;0.10;99.90;;;;;;5052044;28;20012;-78
2023/01/22 07:34:41;;;;;;;;;;;0.10;99.90;;;;;;5052087;28;19999;-78
2023/01/22 07:37:08;;;;;;;;;;;0.10;99.90;;;;;;5052960;28;19909;-79
2023/01/22 07:39:34;;;;;;;;;;;0.10;99.90;;;;;;5051875;28;19925;-78
2023/01/22 07:42:00;;;;;;;;;;;0.20;99.90;;;;;;5032546;28;19909;-78
2023/01/22 07:44:29;;;;;;;;;;;0.20;99.90;;;;;;5049374;28;19910;-78
2023/01/22 07:46:55;;;;;;;;;;;0.10;99.90;;;;;;5053331;28;19904;-79
2023/01/22 07:49:21;;;;;;;;;;;0.10;99.90;;;;;;5051435;28;19909;-80
2023/01/22 07:51:47;;;;;;;;;;;0.20;99.90;;;;;;5039758;28;19978;-80
2023/01/22 07:54:13;;;;;;;;;;;0.20;99.90;;;;;;5049761;28;20388;-81
2023/01/22 07:56:39;;;;;;;;;;;0.20;99.90;;;;;;5047040;28;19909;-81
2023/01/22 07:59:05;;;;;;;;;;;0.20;99.90;;;;;;5045062;28;19905;-81
2023/01/22 08:01:31;;;;;;;;;;;0.30;99.90;;;;;;5051945;28;19927;-81
2023/01/22 08:03:57;;;;;;;;;;;0.20;99.90;;;;;;5050787;28;20341;-81
2023/01/22 08:06:23;;;;;;;;;;;0.30;99.90;;;;;;5050395;28;20396;-82
2023/01/22 08:08:49;;;;;;;;;;;0.30;99.90;;;;;;5051628;28;19915;-80
2023/01/22 08:11:15;;;;;;;;;;;0.30;99.90;;;;;;5045015;28;19916;-80
2023/01/22 08:13:41;;;;;;;;;;;0.30;99.90;;;;;;5052660;28;20369;-80
2023/01/22 08:16:08;;;;;;;;;;;0.30;99.90;;;;;;5052898;28;19956;-80
2023/01/22 08:18:34;;;;;;;;;;;0.40;99.90;;;;;;5050441;28;19912;-81
2023/01/22 08:21:01;;;;;;;;;;;0.40;99.90;;;;;;5053318;28;19909;-80
2023/01/22 08:23:27;;;;;;;;;;;0.40;99.90;;;;;;5052560;28;19905;-82
2023/01/22 08:25:56;;;;;;;;;;;0.50;99.90;;;;;;5045488;28;19909;-82
2023/01/22 08:28:22;;;;;;;;;;;0.60;99.90;;;;;;5067348;28;19924;-82
2023/01/22 08:30:48;;;;;;;;;;;0.70;99.90;;;;;;5057727;28;19909;-81
2023/01/22 08:33:14;;;;;;;;;;;0.70;99.90;;;;;;5054227;28;19917;-81
2023/01/22 08:35:41;;;;;;;;;;;0.70;99.90;;;;;;5029230;28;19909;-81
2023/01/22 08:38:07;;;;;;;;;;;0.80;99.90;;;;;;5031173;28;19905;-81
2023/01/22 08:40:33;;;;;;;;;;;0.90;99.90;;;;;;5062070;28;19959;-80
2023/01/22 08:42:59;;;;;;;;;;;0.90;96.30;;;;;;5049292;28;20285;-80
2023/01/22 08:45:25;;;;;;;;;;;0.90;90.50;;;;;;5048982;28;19913;-81
2023/01/22 08:47:56;;;;;;;;;;;1.00;84.90;;;;;;5056802;28;19951;-80
2023/01/22 08:50:22;;;;;;;;;;;1.00;77.80;;;;;;5054774;28;19909;-80
2023/01/22 08:52:48;;;;;;;;;;;1.10;68.80;;;;;;5055389;28;19923;-80
2023/01/22 08:55:14;;;;;;;;;;;1.20;55.50;;;;;;5054211;28;19952;-80
2023/01/22 08:57:40;;;;;;;;;;;1.30;49.60;;;;;;5056320;28;20014;-77
2023/01/22 09:00:07;;;;;;;;;;;1.30;33.20;;;;;;5054759;28;19917;-77
2023/01/22 09:02:33;;;;;;;;;;;1.30;26.70;;;;;;5054650;28;19916;-76
2023/01/22 09:04:59;;;;;;;;;;;1.20;19.80;;;;;;5050542;28;19916;-76
2023/01/22 09:07:25;;;;;;;;;;;1.20;19.80;;;;;;5036836;28;19913;-77
2023/01/22 09:09:51;;;;;;;;;;;1.30;19.60;;;;;;5035719;28;19909;-77
2023/01/22 09:12:17;;;;;;;;;;;1.40;13.90;;;;;;5055034;28;19923;-76
2023/01/22 09:14:43;;;;;;;;;;;1.50;14.00;;;;;;5049633;28;19923;-77
2023/01/22 09:17:09;;;;;;;;;;;1.50;8.10;;;;;;5048854;28;19909;-79
2023/01/22 09:19:35;;;;;;;;;;;1.50;5.10;;;;;;5058423;28;19911;-79
2023/01/22 09:22:05;;;;;;;;;;;1.40;3.30;;;;;;5057607;28;19908;-78
2023/01/22 09:24:31;;;;;;;;;;;1.50;2.20;;;;;;5058618;28;19917;-78
2023/01/22 09:26:58;;;;;;;;;;;1.50;1.00;;;;;;5059154;28;19905;-81
2023/01/22 09:29:23;;;;;;;;;;;1.60;1.30;;;;;;5057539;28;19896;-80
2023/01/22 09:31:50;;;;;;;;;;;1.50;1.00;;;;;;5058748;28;19916;-81
2023/01/22 09:34:16;;;;;;;;;;;1.60;1.00;;;;;;5057747;28;19983;-81
2023/01/22 09:36:42;;;;;;;;;;;1.70;1.00;;;;;;5050804;28;20403;-81
2023/01/22 09:39:08;;;;;;;;;;;1.70;1.00;;;;;;5057703;28;19909;-80
2023/01/22 09:41:36;;;;;;;;;;;1.70;1.00;;;;;;5044333;28;19909;-82
2023/01/22 09:44:05;;;;;;;;;;;1.80;1.00;;;;;;5056431;28;19904;-81
2023/01/22 09:46:33;;;;;;;;;;;1.80;1.00;;;;;;5058003;28;19909;-83
2023/01/22 09:49:02;;;;;;;;;;;1.80;1.00;;;;;;5057927;28;19935;-81
2023/01/22 09:51:28;;;;;;;;;;;1.90;1.00;;;;;;5053464;28;20382;-82
2023/01/22 09:53:55;;;;;;;;;;;1.90;1.00;;;;;;5057026;28;19912;-81
2023/01/22 09:56:25;;;;;;;;;;;1.90;1.00;;;;;;5059099;28;19909;-82
2023/01/22 09:58:51;;;;;;;;;;;1.80;1.00;;;;;;5059458;28;19916;-81
2023/01/22 10:01:18;;;;;;;;;;;1.90;1.00;;;;;;5056892;28;19920;-80
2023/01/22 10:03:45;;;;;;;;;;;1.90;1.00;;;;;;5052798;28;19920;-81
2023/01/22 10:06:17;;;;;;;;;;;2.00;1.00;;;;;;5053530;28;19920;-80
2023/01/22 10:09:02;;;;;;;;;;;1.90;1.00;;;;;;5053953;28;19916;-81
2023/01/22 10:11:28;;;;;;;;;;;1.90;1.00;;;;;;5048748;28;20049;-80
2023/01/22 10:13:55;;;;;;;;;;;2.10;1.00;;;;;;5055638;28;19927;-80
2023/01/22 10:16:21;;;;;;;;;;;2.10;1.00;;;;;;5054507;28;19909;-78
2023/01/22 10:18:49;;;;;;;;;;;2.10;1.00;;;;;;5057768;28;20350;-79
2023/01/22 10:21:18;;;;;;;;;;;2.10;1.00;;;;;;5055408;28;19909;-78
2023/01/22 10:23:44;;;;;;;;;;;2.00;1.00;;;;;;5052683;28;19909;-79
2023/01/22 10:26:13;;;;;;;;;;;2.10;1.00;;;;;;5053404;28;19916;-77
2023/01/22 10:28:42;;;;;;;;;;;2.10;1.00;;;;;;5045282;28;19908;-77
2023/01/22 10:31:26;;;;;;;;;;;2.20;1.00;;;;;;5054255;28;20276;-76
2023/01/22 10:33:56;;;;;;;;;;;2.10;1.00;;;;;;5046639;28;19909;-77
2023/01/22 10:36:22;;;;;;;;;;;2.10;1.00;;;;;;5052808;28;20265;-78
2023/01/22 10:38:48;;;;;;;;;;;2.10;1.00;;;;;;5047492;28;19909;-75
2023/01/22 10:41:19;;;;;;;;;;;2.10;1.00;;;;;;5053713;28;20007;-76
2023/01/22 10:43:47;;;;;;;;;;;2.00;1.00;;;;;;5063778;28;19919;-77
2023/01/22 10:46:19;;;;;;;;;;;2.00;1.00;;;;;;5065141;28;19916;-77
2023/01/22 10:48:57;;;;;;;;;;;1.90;1.00;;;;;;5052846;28;19909;-78
2023/01/22 10:51:26;;;;;;;;;;;1.90;1.00;;;;;;5065970;28;19915;-78
2023/01/22 10:53:54;;;;;;;;;;;1.80;1.00;;;;;;5060445;28;19915;-78
2023/01/22 10:56:28;;;;;;;;;;;1.80;1.00;;;;;;5050130;28;19908;-78
2023/01/22 10:58:55;;;;;;;;;;;1.80;1.00;;;;;;5052741;28;19924;-78
2023/01/22 11:01:33;;;;;;;;;;;1.80;1.00;;;;;;5052820;28;19920;-78
2023/01/22 11:04:10;;;;;;;;;;;1.80;1.00;;;;;;5048427;28;19920;-78
2023/01/22 11:06:39;;;;;;;;;;;1.90;1.00;;;;;;5052643;28;19909;-79
2023/01/22 11:09:11;;;;;;;;;;;1.90;1.00;;;;;;5053137;28;19919;-81
2023/01/22 11:11:41;;;;;;;;;;;2.00;5.20;;;;;;5053112;28;19923;-80
2023/01/22 11:14:12;;;;;;;;;;;2.00;4.30;;;;;;5050121;28;19916;-80
2023/01/22 11:16:39;;;;;;;;;;;2.00;1.00;;;;;;5053139;28;19915;-81
2023/01/22 11:19:05;;;;;;;;;;;2.10;1.00;;;;;;5051375;28;19913;-80
2023/01/22 11:21:34;;;;;;;;;;;2.10;1.00;;;;;;5052462;28;19978;-81
2023/01/22 11:24:21;;;;;;;;;;;2.30;1.00;;;;;;5051435;28;20306;-76
2023/01/22 11:27:06;;;;;;;;;;;2.20;1.00;;;;;;5045870;28;19909;-77
2023/01/22 11:29:38;;;;;;;;;;;2.20;1.00;;;;;;5033661;28;19920;-77
2023/01/22 11:32:10;;;;;;;;;;;2.20;1.00;;;;;;5032571;28;19932;-77
2023/01/22 11:34:43;;;;;;;;;;;2.20;1.00;;;;;;5029052;28;19909;-77
2023/01/22 11:37:09;;;;;;;;;;;2.30;1.00;;;;;;5032841;28;19916;-77
2023/01/22 11:39:44;;;;;;;;;;;2.20;1.00;;;;;;5049020;28;19913;-77
2023/01/22 11:42:26;;;;;;;;;;;2.30;1.00;;;;;;5060987;28;19909;-78
2023/01/22 11:45:03;;;;;;;;;;;2.40;1.00;;;;;;5053649;28;19915;-78
2023/01/22 11:47:42;;;;;;;;;;;2.40;1.00;;;;;;5046993;28;19931;-79
2023/01/22 11:50:26;;;;;;;;;;;2.50;1.00;;;;;;5049330;28;19909;-79
2023/01/22 11:53:14;;;;;;;;;;;2.30;1.00;;;;;;5054918;28;19916;-78
2023/01/22 11:55:40;;;;;;;;;;;2.20;1.00;;;;;;5049291;28;19945;-78
2023/01/22 11:58:15;;;;;;;;;;;2.20;1.00;;;;;;5053862;28;19916;-78
2023/01/22 12:00:53;;;;;;;;;;;2.20;1.00;;;;;;5053190;28;19921;-78
2023/01/22 12:03:28;;;;;;;;;;;2.10;1.00;;;;;;5052285;28;19908;-77
2023/01/22 12:06:05;;;;;;;;;;;2.10;1.00;;;;;;5051117;28;19916;-76
2023/01/22 12:08:51;;;;;;;;;;;2.00;1.00;;;;;;5051960;28;19908;-80
2023/01/22 12:11:17;;;;;;;;;;;2.10;1.00;;;;;;5045282;28;19916;-76
2023/01/22 12:14:02;;;;;;;;;;;2.10;1.00;;;;;;5051320;28;19913;-76
2023/01/22 12:16:51;;;;;;;;;;;2.10;1.00;;;;;;5040619;28;19916;-80
2023/01/22 12:19:34;;;;;;;;;;;2.00;1.00;;;;;;5051447;28;19908;-76
2023/01/22 12:22:08;;;;;;;;;;;2.00;1.00;;;;;;5056843;28;19958;-76
2023/01/22 12:24:44;;;;;;;;;;;2.00;1.00;;;;;;5056188;28;19909;-76
2023/01/22 12:27:13;;;;;;;;;;;2.00;1.00;;;;;;5057875;28;19909;-76
2023/01/22 12:29:43;;;;;;;;;;;2.20;1.60;;;;;;5057236;28;19912;-76
2023/01/22 12:32:14;;;;;;;;;;;2.10;1.00;;;;;;5054969;28;19924;-79
2023/01/22 12:35:00;;;;;;;;;;;2.10;1.00;;;;;;5055517;28;19909;-77
2023/01/22 12:37:32;;;;;;;;;;;2.10;1.00;;;;;;5055431;28;19909;-77
2023/01/22 12:40:01;;;;;;;;;;;2.20;1.00;;;;;;5056974;28;19909;-78
2023/01/22 12:42:47;;;;;;;;;;;2.10;1.00;;;;;;5056276;28;20384;-76
2023/01/22 12:45:16;;;;;;;;;;;2.10;1.00;;;;;;5053343;28;19916;-78
2023/01/22 12:47:45;;;;;;;;;;;2.10;1.00;;;;;;5051332;28;19916;-79
2023/01/22 12:50:18;;;;;;;;;;;2.20;1.00;;;;;;5056552;28;19932;-79
2023/01/22 12:52:46;;;;;;;;;;;2.20;1.00;;;;;;5051590;28;20125;-77
2023/01/22 12:55:31;;;;;;;;;;;2.10;1.00;;;;;;5054621;28;19909;-77
2023/01/22 12:57:57;;;;;;;;;;;2.10;1.00;;;;;;5046634;28;20365;-78
2023/01/22 13:00:33;;;;;;;;;;;2.20;1.00;;;;;;5051665;28;19921;-77
2023/01/22 13:03:00;;;;;;;;;;;2.20;1.00;;;;;;5046840;28;19909;-78
2023/01/22 13:05:29;;;;;;;;;;;2.10;1.00;;;;;;5052711;28;19909;-80
2023/01/22 13:08:01;;;;;;;;;;;2.10;1.00;;;;;;5044699;28;19920;-78
2023/01/22 13:10:28;;;;;;;;;;;2.00;1.00;;;;;;5045536;28;19916;-78
2023/01/22 13:13:00;;;;;;;;;;;2.00;1.00;;;;;;5050970;28;20265;-77
2023/01/22 13:15:32;;;;;;;;;;;2.00;1.00;;;;;;5063845;28;19908;-78
2023/01/22 13:18:03;;;;;;;;;;;2.00;1.00;;;;;;5053043;28;19908;-75
2023/01/22 13:20:32;;;;;;;;;;;2.00;1.00;;;;;;5054810;28;20285;-80
2023/01/22 13:22:59;;;;;;;;;;;2.00;1.00;;;;;;5053035;28;19909;-77
2023/01/22 13:25:30;;;;;;;;;;;1.90;1.00;;;;;;5054223;28;20029;-79
2023/01/22 13:27:57;;;;;;;;;;;1.90;1.00;;;;;;5041259;28;19913;-80
2023/01/22 13:30:25;;;;;;;;;;;1.90;1.00;;;;;;5053395;28;19920;-78
2023/01/22 13:33:11;;;;;;;;;;;1.90;1.00;;;;;;5052362;28;20472;-78
2023/01/22 13:35:43;;;;;;;;;;;1.90;1.00;;;;;;5054395;28;19983;-77
2023/01/22 13:38:15;;;;;;;;;;;1.80;1.00;;;;;;5043998;28;19916;-77
2023/01/22 13:40:41;;;;;;;;;;;1.80;1.00;;;;;;5047988;28;19919;-78
2023/01/22 13:43:07;;;;;;;;;;;1.80;1.00;;;;;;5045983;28;20274;-78
2023/01/22 13:45:33;;;;;;;;;;;1.80;2.50;;;;;;5054755;28;19959;-78
2023/01/22 13:48:01;;;;;;;;;;;1.80;3.70;;;;;;5054699;28;20354;-78
2023/01/22 13:50:28;;;;;;;;;;;1.80;2.70;;;;;;5054624;28;19913;-78
2023/01/22 13:52:56;;;;;;;;;;;1.80;4.00;;;;;;5038359;28;20370;-79
2023/01/22 13:55:23;;;;;;;;;;;1.80;3.60;;;;;;5054574;28;19905;-79
2023/01/22 13:57:50;;;;;;;;;;;1.80;3.30;;;;;;5053488;28;19915;-79
2023/01/22 14:00:25;;;;;;;;;;;1.80;1.00;;;;;;5054173;28;20354;-79
2023/01/22 14:02:51;;;;;;;;;;;1.80;1.20;;;;;;5052262;28;19920;-80
2023/01/22 14:05:22;;;;;;;;;;;1.80;1.00;;;;;;5054093;28;19916;-80
2023/01/22 14:07:48;;;;;;;;;;;1.80;5.20;;;;;;5053695;28;19935;-80
2023/01/22 14:10:16;;;;;;;;;;;1.80;8.60;;;;;;5054312;28;19931;-80
2023/01/22 14:12:42;;;;;;;;;;;1.80;4.90;;;;;;5052256;28;19924;-79
2023/01/22 14:15:15;;;;;;;;;;;1.90;6.80;;;;;;5053218;28;19909;-79
2023/01/22 14:17:41;;;;;;;;;;;1.80;1.00;;;;;;5053705;28;19908;-79
2023/01/22 14:20:07;;;;;;;;;;;1.80;4.50;;;;;;5054467;28;19969;-79
2023/01/22 14:22:33;;;;;;;;;;;1.80;2.60;;;;;;5050928;28;19909;-79
2023/01/22 14:25:00;;;;;;;;;;;1.80;1.60;;;;;;5056743;28;19996;-80
2023/01/22 14:27:27;;;;;;;;;;;1.80;3.80;;;;;;5056028;28;19909;-79
2023/01/22 14:29:53;;;;;;;;;;;1.80;1.40;;;;;;5036155;28;19920;-79
2023/01/22 14:32:19;;;;;;;;;;;1.80;1.00;;;;;;5052979;28;19917;-78
2023/01/22 14:34:45;;;;;;;;;;;1.80;3.40;;;;;;5054062;28;19909;-77
2023/01/22 14:37:15;;;;;;;;;;;1.80;2.70;;;;;;5054149;28;19912;-77
2023/01/22 14:39:41;;;;;;;;;;;1.80;2.90;;;;;;5053129;28;19980;-78
2023/01/22 14:42:07;;;;;;;;;;;1.80;1.00;;;;;;5060761;28;20359;-78
2023/01/22 14:44:34;;;;;;;;;;;1.80;1.00;;;;;;5053633;28;19956;-77
2023/01/22 14:47:00;;;;;;;;;;;1.80;1.00;;;;;;5059725;28;19912;-78
2023/01/22 14:49:26;;;;;;;;;;;1.80;1.00;;;;;;5054693;28;19916;-78
2023/01/22 14:51:52;;;;;;;;;;;1.70;1.00;;;;;;5052076;28;19940;-78
2023/01/22 14:54:18;;;;;;;;;;;1.70;2.30;;;;;;5053946;28;19908;-77